createdAt,value
2022-09-12T00:03:50.097Z,15.6
2022-09-12T00:08:56.310Z,15.5
2022-09-12T00:14:02.522Z,15.5
2022-09-12T00:19:08.731Z,15.4
2022-09-12T00:24:14.937Z,15.3
2022-09-12T00:29:21.147Z,15.3
2022-09-12T00:34:27.358Z,15.2
2022-09-12T00:39:33.566Z,15.2
2022-09-12T00:44:39.779Z,15.1
2022-09-12T00:49:45.984Z,15.1
2022-09-12T00:54:52.196Z,15.1
2022-09-12T00:59:58.408Z,15.0
2022-09-12T01:05:04.614Z,15.0
2022-09-12T01:10:10.826Z,15.0
2022-09-12T01:15:17.032Z,14.9
2022-09-12T01:20:23.237Z,14.9
2022-09-12T01:25:28.470Z,14.9
2022-09-12T01:30:34.686Z,14.9
2022-09-12T01:35:39.922Z,14.8
2022-09-12T01:40:46.131Z,14.8
2022-09-12T01:45:52.361Z,14.8
2022-09-12T01:50:58.547Z,14.8
2022-09-12T01:56:04.760Z,14.8
2022-09-12T02:01:11.054Z,14.7
2022-09-12T02:06:17.172Z,14.7
2022-09-12T02:11:23.378Z,14.7
2022-09-12T02:16:29.641Z,14.7
2022-09-12T02:21:35.797Z,14.6
2022-09-12T02:26:42.011Z,14.6
2022-09-12T02:31:48.216Z,14.5
2022-09-12T02:36:54.424Z,14.4
2022-09-12T02:42:00.630Z,14.4
2022-09-12T02:47:06.838Z,14.4
2022-09-12T02:52:13.053Z,14.4
2022-09-12T02:57:22.647Z,14.4
2022-09-12T03:02:25.602Z,14.3
2022-09-12T03:07:31.676Z,14.3
2022-09-12T03:12:37.882Z,14.3
2022-09-12T03:17:44.092Z,14.3
2022-09-12T03:27:55.532Z,14.3
2022-09-12T03:33:00.771Z,14.3
2022-09-12T03:38:06.969Z,14.3
2022-09-12T03:43:12.209Z,14.3
2022-09-12T03:48:18.423Z,14.3
2022-09-12T03:53:24.631Z,14.3
2022-09-12T03:58:30.835Z,14.3
2022-09-12T04:03:37.047Z,14.3
2022-09-12T04:08:43.319Z,14.3
2022-09-12T04:13:49.460Z,14.3
2022-09-12T04:18:55.669Z,14.3
2022-09-12T04:24:00.894Z,14.3
2022-09-12T04:29:07.101Z,14.3
2022-09-12T04:34:13.314Z,14.3
2022-09-12T04:39:19.517Z,14.3
2022-09-12T04:44:25.735Z,14.3
2022-09-12T04:49:31.936Z,14.3
2022-09-12T04:54:38.143Z,14.4
2022-09-12T04:59:44.355Z,14.3
2022-09-12T05:04:50.559Z,14.4
2022-09-12T05:09:56.774Z,14.4
2022-09-12T05:15:02.983Z,14.4
2022-09-12T05:20:09.202Z,14.4
2022-09-12T05:25:15.400Z,14.4
2022-09-12T05:30:20.637Z,14.4
2022-09-12T05:35:26.841Z,14.5
2022-09-12T05:40:33.046Z,14.6
2022-09-12T05:45:38.345Z,14.6
2022-09-12T05:50:44.498Z,14.7
2022-09-12T05:55:50.698Z,14.8
2022-09-12T06:00:56.910Z,14.9
2022-09-12T06:06:03.146Z,14.9
2022-09-12T06:11:09.327Z,15.0
2022-09-12T06:16:15.563Z,15.1
2022-09-12T06:21:21.751Z,15.2
2022-09-12T06:26:27.957Z,15.3
2022-09-12T06:31:34.190Z,15.4
2022-09-12T06:36:40.380Z,15.5
2022-09-12T06:41:46.595Z,15.6
2022-09-12T06:46:52.815Z,15.7
2022-09-12T06:51:59.029Z,15.7
2022-09-12T06:57:05.244Z,15.8
2022-09-12T07:02:11.521Z,15.8
2022-09-12T07:07:17.672Z,15.9
2022-09-12T07:12:23.910Z,15.9
2022-09-12T07:17:30.098Z,16.0
2022-09-12T07:22:36.322Z,16.2
2022-09-12T07:27:42.534Z,16.5
2022-09-12T07:32:47.772Z,16.8
2022-09-12T07:37:54.012Z,17.1
2022-09-12T07:42:59.231Z,17.4
2022-09-12T07:48:05.432Z,17.6
2022-09-12T07:53:11.649Z,17.9
2022-09-12T07:58:17.849Z,18.1
2022-09-12T08:03:24.057Z,18.4
2022-09-12T08:08:30.267Z,18.7
2022-09-12T08:13:36.476Z,19.0
2022-09-12T08:18:42.689Z,19.3
2022-09-12T08:23:48.888Z,19.6
2022-09-12T08:28:55.100Z,19.9
2022-09-12T08:34:01.311Z,20.2
2022-09-12T08:39:07.516Z,20.4
2022-09-12T08:44:13.729Z,20.7
2022-09-12T08:49:19.934Z,20.9
2022-09-12T08:54:26.160Z,21.1
2022-09-12T08:59:32.352Z,21.3
2022-09-12T09:04:38.574Z,21.5
2022-09-12T09:09:44.790Z,21.7
2022-09-12T09:14:50.977Z,21.9
2022-09-12T09:19:57.193Z,22.2
2022-09-12T09:25:03.395Z,22.4
2022-09-12T09:30:08.636Z,22.6
2022-09-12T09:35:14.849Z,22.9
2022-09-12T09:40:20.149Z,23.1
2022-09-12T09:45:26.290Z,23.3
2022-09-12T09:50:32.498Z,23.5
2022-09-12T09:55:38.721Z,23.7
2022-09-12T10:00:44.914Z,23.9
2022-09-12T10:05:51.122Z,24.0
2022-09-12T10:10:57.345Z,24.2
2022-09-12T10:16:03.595Z,24.3
2022-09-12T10:21:09.753Z,24.5
2022-09-12T10:26:15.969Z,24.7
2022-09-12T10:31:22.190Z,24.9
2022-09-12T10:36:28.381Z,25.0
2022-09-12T10:41:34.593Z,25.2
2022-09-12T10:46:40.799Z,25.3
2022-09-12T10:51:47.005Z,25.4
2022-09-12T10:56:53.218Z,25.6
2022-09-12T11:01:59.430Z,25.7
2022-09-12T11:07:05.636Z,25.8
2022-09-12T11:12:11.848Z,26.0
2022-09-12T11:17:18.073Z,26.0
2022-09-12T11:22:26.715Z,26.0
2022-09-12T11:27:29.498Z,26.1
2022-09-12T11:32:35.710Z,26.1
2022-09-12T11:37:41.921Z,26.2
2022-09-12T11:42:47.161Z,26.3
2022-09-12T11:47:53.363Z,26.3
2022-09-12T11:52:59.580Z,26.4
2022-09-12T11:58:05.787Z,26.5
2022-09-12T12:03:12.040Z,26.6
2022-09-12T12:08:18.210Z,26.7
2022-09-12T12:13:24.418Z,26.8
2022-09-12T12:18:30.622Z,26.8
2022-09-12T12:23:36.839Z,26.9
2022-09-12T12:28:43.054Z,27.1
2022-09-12T12:33:49.261Z,27.1
2022-09-12T12:38:55.478Z,27.1
2022-09-12T12:44:01.691Z,27.2
2022-09-12T12:49:07.904Z,27.3
2022-09-12T12:54:14.118Z,27.4
2022-09-12T12:59:20.328Z,27.5
2022-09-12T13:04:26.541Z,27.5
2022-09-12T13:09:32.758Z,27.4
2022-09-12T13:24:51.391Z,27.6
2022-09-12T13:29:58.447Z,27.6
2022-09-12T13:35:03.824Z,27.7
2022-09-12T13:50:21.738Z,27.9
2022-09-12T14:00:39.080Z,27.8
2022-09-12T14:05:44.319Z,27.8
2022-09-12T14:16:09.019Z,27.8
2022-09-12T14:21:14.229Z,27.7
2022-09-12T14:26:26.564Z,27.7
2022-09-12T14:31:45.360Z,27.7
2022-09-12T14:36:51.235Z,27.6
2022-09-12T14:42:03.578Z,27.7
2022-09-12T14:47:15.895Z,27.7
2022-09-12T14:52:28.233Z,27.8
2022-09-12T15:02:39.695Z,27.7
2022-09-12T15:07:44.936Z,27.6
2022-09-12T15:13:03.399Z,27.6
2022-09-12T15:18:21.842Z,27.4
2022-09-12T15:23:40.342Z,27.3
2022-09-12T15:28:58.739Z,27.3
2022-09-12T15:34:03.979Z,27.2
2022-09-12T15:39:16.317Z,27.3
2022-09-12T15:44:28.645Z,27.3
2022-09-12T15:49:40.975Z,27.3
2022-09-12T15:54:53.315Z,27.3
2022-09-12T16:00:05.686Z,27.3
2022-09-12T16:10:23.226Z,27.4
2022-09-12T16:15:28.470Z,27.4
2022-09-12T16:20:46.925Z,27.4
2022-09-12T16:26:05.380Z,27.4
2022-09-12T16:31:23.907Z,27.5
2022-09-12T16:36:42.282Z,27.5
2022-09-12T16:41:47.524Z,27.5
2022-09-12T16:46:59.858Z,27.4
2022-09-12T16:52:12.191Z,27.3
2022-09-12T16:57:24.533Z,27.2
2022-09-12T17:02:36.918Z,27.0
2022-09-12T17:07:49.180Z,26.7
2022-09-12T17:13:00.541Z,26.5
2022-09-12T17:18:06.748Z,26.3
2022-09-12T17:23:12.960Z,26.1
2022-09-12T17:28:19.164Z,25.9
2022-09-12T17:33:25.376Z,25.7
2022-09-12T17:38:31.584Z,25.6
2022-09-12T17:43:38.046Z,25.4
2022-09-12T17:48:44.031Z,25.2
2022-09-12T17:53:50.213Z,25.1
2022-09-12T17:58:56.417Z,24.9
2022-09-12T18:04:02.631Z,24.7
2022-09-12T18:09:08.853Z,24.6
2022-09-12T18:14:15.056Z,24.5
2022-09-12T18:19:21.259Z,24.3
2022-09-12T18:24:27.463Z,24.2
2022-09-12T18:29:33.680Z,24.0
2022-09-12T18:34:39.884Z,23.8
2022-09-12T18:39:46.132Z,23.6
2022-09-12T18:44:52.306Z,23.4
2022-09-12T18:49:58.514Z,23.3
2022-09-12T18:55:04.736Z,23.1
2022-09-12T19:00:12.423Z,23.0
2022-09-12T19:05:16.168Z,22.8
2022-09-12T19:10:21.406Z,22.6
2022-09-12T19:15:27.610Z,22.5
2022-09-12T19:20:33.825Z,22.3
2022-09-12T19:25:40.028Z,22.2
2022-09-12T19:30:46.293Z,22.1
2022-09-12T19:35:52.443Z,21.9
2022-09-12T19:40:58.663Z,21.8
2022-09-12T19:46:04.925Z,21.7
2022-09-12T19:51:11.069Z,21.6
2022-09-12T19:56:17.286Z,21.5
2022-09-12T20:01:23.529Z,21.4
2022-09-12T20:06:29.703Z,21.3
2022-09-12T20:11:35.906Z,21.2
2022-09-12T20:16:42.108Z,21.1
2022-09-12T20:21:48.319Z,20.9
2022-09-12T20:26:54.527Z,20.8
2022-09-12T20:32:00.738Z,20.7
2022-09-12T20:37:06.945Z,20.7
2022-09-12T20:42:13.160Z,20.6
2022-09-12T20:47:19.367Z,20.5
2022-09-12T20:52:25.576Z,20.4
2022-09-12T20:57:30.806Z,20.3
2022-09-12T21:02:37.139Z,20.2
2022-09-12T21:07:42.255Z,20.2
2022-09-12T21:12:48.464Z,20.1
2022-09-12T21:17:54.685Z,20.0
2022-09-12T21:23:00.882Z,20.0
2022-09-12T21:28:07.096Z,19.9
2022-09-12T21:33:12.313Z,19.8
2022-09-12T21:38:18.525Z,19.7
2022-09-12T21:43:24.730Z,19.6
2022-09-12T21:48:30.938Z,19.5
2022-09-12T21:53:37.256Z,19.5
2022-09-12T21:58:43.357Z,19.4
2022-09-12T22:03:49.630Z,19.4
2022-09-12T22:08:55.775Z,19.4
2022-09-12T22:14:01.981Z,19.4
2022-09-12T22:19:08.191Z,19.4
2022-09-12T22:24:14.399Z,19.4
2022-09-12T22:29:20.609Z,19.4
2022-09-12T22:34:26.819Z,19.4
2022-09-12T22:39:33.023Z,19.5
2022-09-12T22:44:39.231Z,19.5
2022-09-12T22:49:45.441Z,19.6
2022-09-12T22:54:50.677Z,19.6
2022-09-12T22:59:56.886Z,19.6
2022-09-12T23:05:03.108Z,19.6
2022-09-12T23:10:09.307Z,19.6
2022-09-12T23:15:15.507Z,19.6
2022-09-12T23:20:21.712Z,19.6
2022-09-12T23:25:27.920Z,19.6
2022-09-12T23:30:34.150Z,19.7
2022-09-12T23:35:40.339Z,19.7
2022-09-12T23:40:46.549Z,19.6
2022-09-12T23:45:52.781Z,19.6
2022-09-12T23:50:58.967Z,19.6
2022-09-12T23:56:05.173Z,19.6
